Time;durP1;ratioP1;P1;durP2;ratioP2;P2;SDS_P1;SDS_P2;PMS_P1;PMS_P2;Temp;Humidity;BMP_temperature;BMP_pressure;BME280_temperature;BME280_humidity;BME280_pressure;Samples;Min_cycle;Max_cycle;Signal;HPM_P1;HPM_P2
2023/09/02 00:01:46;;;;;;;7.30;6.20;;;;;;;-141.97;46.18;47367.25;5029694;28;20185;-79
2023/09/02 00:04:12;;;;;;;8.57;6.53;;;;;;;-141.97;46.38;47619.03;5029660;28;20181;-79
2023/09/02 00:06:37;;;;;;;9.73;7.10;;;;;;;-141.97;46.33;47399.91;5030647;28;20269;-79
2023/09/02 00:09:03;;;;;;;8.33;7.30;;;;;;;-141.97;46.28;47419.13;5030962;28;20247;-79
2023/09/02 00:11:28;;;;;;;10.07;9.07;;;;;;;-141.97;46.09;47390.31;5029332;28;20198;-79
2023/09/02 00:13:54;;;;;;;13.67;9.87;;;;;;;-141.97;46.10;47517.16;5030926;28;20190;-79
2023/09/02 00:16:19;;;;;;;13.87;9.50;;;;;;;-141.97;46.26;47298.06;5031862;28;20174;-79
2023/09/02 00:18:46;;;;;;;16.03;9.10;;;;;;;-141.97;47.08;47373.00;5043452;28;20174;-79
2023/09/02 00:21:11;;;;;;;11.30;8.53;;;;;;;-141.97;47.95;47453.72;5050741;28;20166;-79
2023/09/02 00:23:39;;;;;;;8.27;7.30;;;;;;;-141.97;48.59;47388.38;5032409;28;20189;-79
2023/09/02 00:26:05;;;;;;;8.30;7.50;;;;;;;-141.97;48.75;47378.78;5030241;28;20169;-79
2023/09/02 00:28:30;;;;;;;8.67;7.20;;;;;;;-141.97;48.39;47422.97;5030767;28;20460;-79
2023/09/02 00:30:55;;;;;;;8.20;7.20;;;;;;;-141.97;48.61;47376.84;5028985;28;20618;-79
2023/09/02 00:33:21;;;;;;;8.53;7.13;;;;;;;-141.97;48.70;47365.31;5030358;28;20261;-79
2023/09/02 00:35:46;;;;;;;8.37;6.87;;;;;;;-141.97;48.55;47409.53;5030034;28;20174;-79
2023/09/02 00:38:12;;;;;;;7.90;6.70;;;;;;;-141.97;48.28;47374.94;5028923;28;20177;-79
2023/09/02 00:40:42;;;;;;;7.30;6.60;;;;;;;-141.97;48.36;47422.97;5030477;28;20166;-79
2023/09/02 00:43:07;;;;;;;7.10;6.40;;;;;;;-141.97;48.42;47424.91;5030323;28;20275;-79
2023/09/02 00:45:34;;;;;;;7.40;6.07;;;;;;;-141.97;48.22;47432.59;5019696;28;20681;-78
2023/09/02 00:48:00;;;;;;;7.47;6.17;;;;;;;-141.97;48.08;47388.38;5030158;28;20165;-79
2023/09/02 00:50:26;;;;;;;7.03;6.33;;;;;;;-141.97;48.00;47374.94;5030260;28;20170;-78
2023/09/02 00:52:51;;;;;;;7.73;6.30;;;;;;;-141.97;47.98;47382.63;5030535;28;20174;-79
2023/09/02 00:55:17;;;;;;;7.13;6.43;;;;;;;-141.97;48.10;47342.25;5030222;28;20190;-79
2023/09/02 00:57:44;;;;;;;8.17;5.70;;;;;;;-141.97;48.06;47355.72;5029102;28;20268;-79
2023/09/02 01:00:11;;;;;;;6.60;6.00;;;;;;;-141.97;48.39;47374.94;5029940;28;20245;-78
2023/09/02 01:02:37;;;;;;;7.13;5.87;;;;;;;-141.97;48.33;47374.94;5030797;28;20220;-79
2023/09/02 01:05:04;;;;;;;7.17;6.47;;;;;;;-141.97;48.53;47415.28;5033822;28;20184;-79
2023/09/02 01:07:29;;;;;;;7.53;6.47;;;;;;;-141.97;48.18;47386.47;5033657;28;20198;-79
2023/09/02 01:09:55;;;;;;;7.47;6.50;;;;;;;-141.97;48.05;47405.69;5032049;28;20520;-79
2023/09/02 01:12:21;;;;;;;7.83;6.40;;;;;;;-141.97;48.21;47405.69;5034142;28;20236;-79
2023/09/02 01:14:46;;;;;;;7.63;6.10;;;;;;;-141.97;47.89;47417.22;5033850;28;20186;-79
2023/09/02 01:17:12;;;;;;;8.47;6.13;;;;;;;-141.97;48.12;47276.91;5033944;28;20603;-79
2023/09/02 01:19:39;;;;;;;6.60;6.00;;;;;;;-141.97;48.50;47426.81;5033484;28;20233;-80
2023/09/02 01:22:23;;;;;;;7.43;6.50;;;;;;;-141.97;48.67;47415.28;5033747;28;20175;-79
2023/09/02 01:25:10;;;;;;;8.50;6.53;;;;;;;-141.97;48.90;47384.53;5034001;28;20232;-79
2023/09/02 01:27:51;;;;;;;6.60;5.90;;;;;;;-141.97;49.23;47421.06;5034007;28;20181;-80
2023/09/02 01:30:26;;;;;;;6.87;6.17;;;;;;;-141.97;49.57;47250.00;5034404;28;20166;-79
2023/09/02 01:32:53;;;;;;;7.17;6.47;;;;;;;-141.97;49.48;47388.38;5033865;28;20162;-79
2023/09/02 01:35:24;;;;;;;7.87;6.30;;;;;;;-141.97;49.57;47444.13;5033427;28;20316;-79
2023/09/02 01:37:52;;;;;;;7.37;6.63;;;;;;;-141.97;49.39;47401.84;5034031;28;20189;-79
2023/09/02 01:40:24;;;;;;;7.77;6.73;;;;;;;-141.97;49.04;47415.28;5035113;28;20166;-79
2023/09/02 01:42:51;;;;;;;8.10;6.50;;;;;;;-141.97;48.96;47401.84;5034463;28;20247;-80
2023/09/02 01:45:18;;;;;;;8.27;6.37;;;;;;;-141.97;48.81;47426.81;5022674;28;20268;-80
2023/09/02 01:47:45;;;;;;;7.03;6.33;;;;;;;-141.97;49.09;47353.78;5033850;28;20180;-79
2023/09/02 01:50:13;;;;;;;7.40;6.40;;;;;;;-141.97;49.17;47382.63;5033073;28;20276;-79
2023/09/02 01:52:39;;;;;;;8.23;6.50;;;;;;;-141.97;49.47;47426.81;5033061;28;20561;-79
2023/09/02 01:55:05;;;;;;;7.63;6.63;;;;;;;-141.97;49.83;47401.84;5033078;28;20324;-79
2023/09/02 01:57:32;;;;;;;12.70;7.03;;;;;;;-141.97;50.26;47384.53;5037140;28;20167;-78
2023/09/02 01:59:58;;;;;;;9.77;6.87;;;;;;;-141.97;50.50;47374.94;5033372;28;20260;-78
2023/09/02 02:02:23;;;;;;;8.77;6.87;;;;;;;-141.97;50.77;47413.38;5033516;28;20249;-78
2023/09/02 02:04:54;;;;;;;7.87;7.07;;;;;;;-141.97;51.26;47403.75;5033388;28;20607;-78
2023/09/02 02:07:21;;;;;;;11.00;7.23;;;;;;;-141.97;51.15;47403.75;5033236;28;20224;-78
2023/09/02 02:09:50;;;;;;;9.73;7.17;;;;;;;-141.97;51.36;47428.75;5032654;28;20262;-79
2023/09/02 02:12:16;;;;;;;8.10;7.30;;;;;;;-141.97;51.46;47403.75;5033063;28;20182;-78
2023/09/02 02:14:41;;;;;;;12.40;7.37;;;;;;;-141.97;51.59;47388.38;5032819;28;20186;-79
2023/09/02 02:17:07;;;;;;;13.80;7.50;;;;;;;-141.97;51.63;47413.38;5032783;28;20209;-78
2023/09/02 02:19:33;;;;;;;12.50;7.93;;;;;;;-141.97;51.86;47413.38;5032632;28;20232;-79
2023/09/02 02:21:59;;;;;;;11.63;7.60;;;;;;;-141.97;52.52;47407.59;5032683;28;20648;-79
2023/09/02 02:24:25;;;;;;;9.83;7.10;;;;;;;-141.97;52.40;47403.75;5033049;28;20182;-79
2023/09/02 02:26:50;;;;;;;8.13;7.20;;;;;;;-141.97;52.87;47392.22;5033031;28;20162;-79
2023/09/02 02:29:16;;;;;;;7.77;6.97;;;;;;;-141.97;53.60;47355.72;5032461;28;20193;-79
2023/09/02 02:31:41;;;;;;;10.37;7.80;;;;;;;-141.97;53.62;47392.22;5032453;28;20162;-79
2023/09/02 02:34:07;;;;;;;9.83;7.90;;;;;;;-141.97;53.72;47388.38;5032151;28;20661;-79
2023/09/02 02:36:32;;;;;;;9.97;8.00;;;;;;;-141.97;53.44;47446.03;5030932;28;20654;-80
2023/09/02 02:38:57;;;;;;;8.60;7.67;;;;;;;-141.97;53.76;47453.72;5031757;28;20201;-79
2023/09/02 02:41:23;;;;;;;9.10;7.37;;;;;;;-141.97;54.35;47421.06;5031127;28;20560;-80
2023/09/02 02:43:48;;;;;;;12.23;7.87;;;;;;;-141.97;54.29;47421.06;5032290;28;20224;-79
2023/09/02 02:46:14;;;;;;;10.47;8.30;;;;;;;-141.97;54.66;47426.81;5021023;28;20794;-79
2023/09/02 02:48:39;;;;;;;12.40;8.27;;;;;;;-141.97;54.89;47611.34;5030886;28;20196;-78
2023/09/02 02:51:04;;;;;;;13.07;9.47;;;;;;;-141.97;55.00;47403.75;5030830;28;20181;-78
2023/09/02 02:53:30;;;;;;;12.17;8.23;;;;;;;-141.97;55.01;47447.97;5032194;28;20265;-79
2023/09/02 02:55:55;;;;;;;19.03;9.27;;;;;;;-141.97;55.12;47399.91;5032221;28;20249;-80
2023/09/02 02:58:21;;;;;;;11.63;9.03;;;;;;;-141.97;55.70;47419.13;5032088;28;20181;-79
2023/09/02 03:00:47;;;;;;;14.53;9.13;;;;;;;-141.97;55.67;47392.22;5031897;28;20181;-79
2023/09/02 03:03:12;;;;;;;13.10;9.40;;;;;;;-141.97;56.27;47417.22;5031646;28;20173;-79
2023/09/02 03:05:39;;;;;;;17.10;10.70;;;;;;;-141.97;56.46;47440.28;5031993;28;20247;-79
2023/09/02 03:08:06;;;;;;;14.10;9.43;;;;;;;-141.97;56.73;47419.13;5030204;28;20256;-78
2023/09/02 03:10:33;;;;;;;14.77;9.67;;;;;;;-141.97;57.01;47424.91;5031867;28;21055;-80
2023/09/02 03:12:59;;;;;;;13.47;9.53;;;;;;;-141.97;57.11;47426.81;5031727;28;20173;-78
2023/09/02 03:15:25;;;;;;;24.17;16.40;;;;;;;-141.97;57.29;47432.59;5031765;28;20185;-79
2023/09/02 03:17:50;;;;;;;10.80;9.07;;;;;;;-141.97;57.39;47430.66;5032116;28;20807;-78
2023/09/02 03:20:16;;;;;;;14.83;9.17;;;;;;;-141.97;57.36;47392.22;5031330;28;20181;-79
2023/09/02 03:22:44;;;;;;;12.80;9.00;;;;;;;-141.97;57.32;47357.63;5031230;28;20251;-80
2023/09/02 03:25:09;;;;;;;17.67;9.30;;;;;;;-141.97;57.70;47426.81;5030748;28;20622;-79
2023/09/02 03:27:41;;;;;;;20.83;9.93;;;;;;;-141.97;57.80;47422.97;5031251;28;20182;-79
2023/09/02 03:30:08;;;;;;;22.83;10.10;;;;;;;-141.97;57.95;47424.91;5031110;28;20174;-78
2023/09/02 03:32:34;;;;;;;20.10;10.43;;;;;;;-141.97;58.33;47405.69;5031251;28;20228;-79
2023/09/02 03:34:59;;;;;;;14.07;10.00;;;;;;;-141.97;58.39;47649.78;5031379;28;20225;-79
2023/09/02 03:37:26;;;;;;;16.10;10.03;;;;;;;-141.97;58.87;47430.66;5030003;28;20293;-79
2023/09/02 03:39:53;;;;;;;19.03;10.00;;;;;;;-141.97;59.05;47413.38;5031242;28;20174;-79
2023/09/02 03:42:18;;;;;;;17.27;9.80;;;;;;;-141.97;59.60;47349.94;5031037;28;20317;-79
2023/09/02 03:44:44;;;;;;;18.13;9.87;;;;;;;-141.97;59.64;47421.06;5021724;28;20312;-79
2023/09/02 03:47:09;;;;;;;16.93;9.93;;;;;;;-141.97;60.11;47436.44;5032523;28;20293;-79
2023/09/02 03:49:34;;;;;;;14.40;9.67;;;;;;;-141.97;60.49;47467.19;5032210;28;20607;-78
2023/09/02 03:52:00;;;;;;;16.93;10.47;;;;;;;-141.97;60.42;47478.72;5028966;28;20225;-78
2023/09/02 03:54:25;;;;;;;17.53;10.67;;;;;;;-141.97;60.35;47424.91;5012824;28;20191;-79
2023/09/02 03:56:50;;;;;;;25.47;19.23;;;;;;;-141.97;60.35;47469.09;5011935;28;20253;-78
2023/09/02 03:59:16;;;;;;;34.27;18.80;;;;;;;-141.97;60.38;47430.66;5019051;28;20177;-79
2023/09/02 04:01:41;;;;;;;15.93;10.90;;;;;;;-141.97;60.42;47449.88;5030899;28;20166;-79
2023/09/02 04:04:07;;;;;;;13.07;10.10;;;;;;;-141.97;60.99;47453.72;5030894;28;20698;-79
2023/09/02 04:06:32;;;;;;;13.70;10.73;;;;;;;-141.97;61.19;47532.53;5030577;28;20272;-80
2023/09/02 04:08:57;;;;;;;14.77;10.30;;;;;;;-141.97;60.96;47440.28;5030700;28;20173;-80
2023/09/02 04:11:23;;;;;;;13.60;9.87;;;;;;;-141.97;60.56;47380.69;5030487;28;20181;-79
2023/09/02 04:13:49;;;;;;;15.60;9.83;;;;;;;-141.97;60.06;47392.22;5043918;28;20190;-79
2023/09/02 04:16:14;;;;;;;15.07;9.97;;;;;;;-141.97;59.85;47595.97;5051470;28;20184;-79
2023/09/02 04:18:39;;;;;;;15.80;10.03;;;;;;;-141.97;58.98;47446.03;5032144;28;20185;-79
2023/09/02 04:21:08;;;;;;;19.10;10.60;;;;;;;-141.97;58.60;47430.66;5030582;28;20170;-79
2023/09/02 04:23:34;;;;;;;15.30;10.07;;;;;;;-141.97;57.85;47434.50;5030455;28;20536;-79
2023/09/02 04:26:00;;;;;;;25.37;10.17;;;;;;;-141.97;57.30;47438.34;5030419;28;20170;-79
2023/09/02 04:28:26;;;;;;;17.90;9.43;;;;;;;-141.97;56.58;47378.78;5030292;28;20174;-81
2023/09/02 04:30:56;;;;;;;22.33;11.17;;;;;;;-141.97;56.68;47428.75;5030263;28;20166;-78
2023/09/02 04:33:23;;;;;;;31.20;21.80;;;;;;;-141.97;57.56;47463.34;5028757;28;20174;-79
2023/09/02 04:35:49;;;;;;;53.70;36.93;;;;;;;-141.97;58.06;47378.78;5030096;28;20249;-79
2023/09/02 04:38:15;;;;;;;28.60;23.00;;;;;;;-141.97;58.76;47453.72;5048396;28;20272;-79
2023/09/02 04:40:41;;;;;;;20.00;15.60;;;;;;;-141.97;58.81;47421.06;5036282;28;20181;-79
2023/09/02 04:43:07;;;;;;;15.50;11.97;;;;;;;-141.97;59.11;47447.97;5034805;28;20310;-79
2023/09/02 04:45:34;;;;;;;16.53;12.53;;;;;;;-141.97;59.02;47463.34;5024616;28;20446;-79
2023/09/02 04:48:00;;;;;;;19.23;12.47;;;;;;;-141.97;58.77;47449.88;5035085;28;20257;-79
2023/09/02 04:50:26;;;;;;;18.83;12.93;;;;;;;-141.97;58.67;47422.97;5034683;28;20209;-80
2023/09/02 04:52:52;;;;;;;16.07;13.17;;;;;;;-141.97;58.46;47438.34;5034576;28;20159;-80
2023/09/02 04:55:19;;;;;;;18.03;13.23;;;;;;;-141.97;58.01;47480.63;5034865;28;20309;-80
2023/09/02 04:57:45;;;;;;;17.63;12.37;;;;;;;-141.97;57.72;47447.97;5034649;28;20159;-79
2023/09/02 05:00:12;;;;;;;17.33;12.47;;;;;;;-141.97;57.05;47424.91;5034156;28;20186;-79
2023/09/02 05:02:38;;;;;;;23.17;12.23;;;;;;;-141.97;56.82;47422.97;5034637;28;20201;-79
2023/09/02 05:05:04;;;;;;;18.00;11.67;;;;;;;-141.97;56.87;47422.97;5033900;28;20181;-79
2023/09/02 05:07:29;;;;;;;21.63;11.27;;;;;;;-141.97;57.11;47461.41;5034228;28;20174;-78
2023/09/02 05:09:55;;;;;;;23.43;12.67;;;;;;;-141.97;56.90;47417.22;5033846;28;20176;-78
2023/09/02 05:12:20;;;;;;;22.60;14.17;;;;;;;-141.97;57.27;47422.97;5033780;28;20166;-79
2023/09/02 05:14:45;;;;;;;18.73;12.83;;;;;;;-141.97;57.82;47374.94;5033736;28;20196;-78
2023/09/02 05:17:11;;;;;;;15.90;12.43;;;;;;;-141.97;57.87;47419.13;5032597;28;20180;-78
2023/09/02 05:19:36;;;;;;;19.80;11.90;;;;;;;-141.97;57.67;47453.72;5033800;28;20540;-79
2023/09/02 05:22:03;;;;;;;19.00;11.30;;;;;;;-141.97;57.19;47449.88;5034063;28;20675;-79
2023/09/02 05:24:28;;;;;;;20.27;11.77;;;;;;;-141.97;56.41;47469.09;5032894;28;20169;-79
2023/09/02 05:26:54;;;;;;;16.87;9.73;;;;;;;-141.97;55.00;47422.97;5033165;28;20178;-80
2023/09/02 05:29:19;;;;;;;16.10;10.47;;;;;;;-141.97;54.54;47428.75;5033603;28;20215;-78
2023/09/02 05:31:45;;;;;;;14.40;10.00;;;;;;;-141.97;53.82;47401.84;5033639;28;20260;-79
2023/09/02 05:34:10;;;;;;;17.53;10.50;;;;;;;-141.97;53.09;47380.69;5033307;28;20190;-79
2023/09/02 05:36:36;;;;;;;20.10;9.80;;;;;;;-141.97;52.11;47449.88;5033710;28;20162;-79
2023/09/02 05:39:01;;;;;;;15.83;10.23;;;;;;;-141.97;51.92;47434.50;5033836;28;20939;-79
2023/09/02 05:41:28;;;;;;;17.97;9.80;;;;;;;-141.97;51.19;47428.75;5033514;28;20154;-81
2023/09/02 05:43:53;;;;;;;13.73;9.73;;;;;;;-141.97;50.75;47449.88;5033506;28;20233;-79
2023/09/02 05:46:19;;;;;;;15.33;10.47;;;;;;;-141.97;50.83;47428.75;5023130;28;20293;-79
2023/09/02 05:48:44;;;;;;;13.73;9.80;;;;;;;-141.97;50.73;47415.28;5032703;28;20170;-79
2023/09/02 05:51:09;;;;;;;20.37;10.70;;;;;;;-141.97;51.69;47382.63;5033262;28;20199;-79
2023/09/02 05:53:35;;;;;;;21.53;10.30;;;;;;;-141.97;52.37;47409.53;5033193;28;20181;-79
2023/09/02 05:56:00;;;;;;;29.27;20.07;;;;;;;-141.97;52.63;47434.50;5037588;28;20284;-79
2023/09/02 05:58:26;;;;;;;16.43;10.10;;;;;;;-141.97;51.87;47428.75;5040977;28;20166;-78
2023/09/02 06:00:51;;;;;;;16.47;10.30;;;;;;;-141.97;51.02;47409.53;5041921;28;20170;-80
2023/09/02 06:03:17;;;;;;;15.93;9.50;;;;;;;-141.97;49.05;47426.81;5039909;28;20180;-79
2023/09/02 06:05:42;;;;;;;16.77;10.33;;;;;;;-141.97;48.99;47396.06;5039012;28;20213;-78
2023/09/02 06:08:08;;;;;;;15.73;10.13;;;;;;;-141.97;48.82;47396.06;5033004;28;20190;-80
2023/09/02 06:10:33;;;;;;;20.10;10.17;;;;;;;-141.97;48.70;47365.31;5032359;28;20182;-80
2023/09/02 06:12:58;;;;;;;14.40;9.83;;;;;;;-141.97;47.19;47419.13;5048353;28;20178;-79
2023/09/02 06:15:24;;;;;;;13.50;9.10;;;;;;;-141.97;47.13;47378.78;5032712;28;20263;-79
2023/09/02 06:17:49;;;;;;;13.43;9.00;;;;;;;-141.97;46.33;47392.22;5032157;28;20201;-79
2023/09/02 06:20:16;;;;;;;13.83;8.90;;;;;;;-141.97;45.63;47384.53;5031464;28;20228;-79
2023/09/02 06:22:41;;;;;;;15.50;8.93;;;;;;;-141.97;45.48;47380.69;5031640;28;20204;-80
2023/09/02 06:25:07;;;;;;;14.43;8.47;;;;;;;-141.97;44.88;47392.22;5032154;28;20241;-79
2023/09/02 06:27:32;;;;;;;14.83;8.60;;;;;;;-141.97;44.96;47378.78;5032201;28;20224;-79
2023/09/02 06:29:57;;;;;;;16.17;9.23;;;;;;;-141.97;43.70;47357.63;5031781;28;20198;-80
2023/09/02 06:32:23;;;;;;;12.97;8.37;;;;;;;-141.97;43.72;47361.47;5032723;28;20172;-79
2023/09/02 06:34:48;;;;;;;15.88;8.43;;;;;;;-141.97;42.92;47384.53;5034053;28;20217;-80
2023/09/02 06:37:14;;;;;;;11.32;8.60;;;;;;;-141.97;42.39;47626.72;5031904;28;20255;-79
2023/09/02 06:39:39;;;;;;;11.75;8.40;;;;;;;-141.97;42.06;47365.31;5031819;28;20177;-79
2023/09/02 06:42:04;;;;;;;20.25;12.48;;;;;;;-141.97;42.01;47315.34;5031944;28;20225;-80
2023/09/02 06:44:30;;;;;;;15.27;9.30;;;;;;;-141.97;41.49;47342.25;5032115;28;20162;-79
2023/09/02 06:46:55;;;;;;;14.10;9.68;;;;;;;-141.97;41.07;47330.72;5021806;28;20690;-79
2023/09/02 06:49:21;;;;;;;21.88;10.00;;;;;;;-141.97;41.44;47363.41;5031592;28;20169;-79
2023/09/02 06:51:46;;;;;;;17.58;9.05;;;;;;;-141.97;41.22;47353.78;5031688;28;20170;-79
2023/09/02 06:54:11;;;;;;;17.80;9.07;;;;;;;-141.97;41.32;47346.09;5032394;28;20182;-80
2023/09/02 06:56:37;;;;;;;12.13;8.52;;;;;;;-141.97;42.01;47357.63;5030844;28;20654;-79
2023/09/02 06:59:02;;;;;;;11.57;8.40;;;;;;;-141.97;42.55;47376.84;5030525;28;20177;-79
2023/09/02 07:01:28;;;;;;;12.85;8.70;;;;;;;-141.97;41.79;47380.69;5030912;28;20165;-80
2023/09/02 07:03:55;;;;;;;11.15;8.15;;;;;;;-141.97;40.97;47351.88;5031880;28;20192;-80
2023/09/02 07:06:21;;;;;;;13.45;7.57;;;;;;;-141.97;40.63;47328.81;5031930;28;20241;-79
2023/09/02 07:08:46;;;;;;;12.25;7.90;;;;;;;-141.97;40.60;47349.94;5031016;28;20231;-80
2023/09/02 07:11:13;;;;;;;10.52;7.57;;;;;;;-141.97;39.91;47357.63;5031078;28;20177;-80
2023/09/02 07:13:40;;;;;;;8.70;6.93;;;;;;;-141.97;38.36;47338.41;5031529;28;20166;-81
2023/09/02 07:16:06;;;;;;;17.23;6.97;;;;;;;-141.97;38.46;47323.03;5032304;28;20197;-80
2023/09/02 07:18:33;;;;;;;9.10;7.30;;;;;;;-141.97;38.46;47349.94;5032193;28;20703;-80
2023/09/02 07:21:02;;;;;;;12.07;7.53;;;;;;;-141.97;38.31;47307.66;5031564;28;20978;-80
2023/09/02 07:23:30;;;;;;;11.32;7.88;;;;;;;-141.97;38.32;47336.50;5034234;28;20249;-79
2023/09/02 07:25:57;;;;;;;10.35;6.93;;;;;;;-141.97;37.92;47280.75;5032379;28;20689;-79
2023/09/02 07:28:22;;;;;;;11.40;6.90;;;;;;;-141.97;37.34;47524.84;5031756;28;20206;-79
2023/09/02 07:30:48;;;;;;;10.35;6.53;;;;;;;-141.97;37.16;47353.78;5031523;28;20625;-81
2023/09/02 07:33:13;;;;;;;7.50;6.22;;;;;;;-141.97;36.82;47319.19;5031773;28;20173;-80
2023/09/02 07:35:39;;;;;;;7.00;6.30;;;;;;;-141.97;36.54;47307.66;5032292;28;20670;-80
2023/09/02 07:38:05;;;;;;;10.40;7.15;;;;;;;-141.97;36.73;47276.91;5031530;28;20185;-79
2023/09/02 07:40:31;;;;;;;8.65;6.40;;;;;;;-141.97;36.40;47326.88;5031320;28;20212;-79
2023/09/02 07:43:00;;;;;;;9.93;6.13;;;;;;;-141.97;36.37;47261.53;5031453;28;20251;-79
2023/09/02 07:45:25;;;;;;;6.80;6.10;;;;;;;-141.97;35.94;47299.97;5022260;28;20261;-81
2023/09/02 07:47:50;;;;;;;6.47;5.88;;;;;;;-141.97;35.83;47290.38;5031447;28;20214;-81
2023/09/02 07:50:16;;;;;;;8.40;6.40;;;;;;;-141.97;36.03;47321.13;5030773;28;20188;-79
2023/09/02 07:52:41;;;;;;;6.35;5.53;;;;;;;-141.97;35.80;47315.34;5031112;28;20183;-81
2023/09/02 07:55:07;;;;;;;8.50;5.95;;;;;;;-141.97;35.31;47282.69;5031137;28;20325;-79
2023/09/02 07:57:33;;;;;;;6.30;5.70;;;;;;;-141.97;36.13;47296.13;5031381;28;20580;-80
2023/09/02 08:00:00;;;;;;;8.13;6.22;;;;;;;-141.97;36.14;47301.91;5030897;28;20170;-80
2023/09/02 08:02:25;;;;;;;7.00;5.82;;;;;;;-141.97;35.34;47273.06;5032324;28;20271;-80
2023/09/02 08:04:50;;;;;;;6.57;5.63;;;;;;;-141.97;34.79;47288.44;5040856;28;20244;-78
2023/09/02 08:07:16;;;;;;;6.65;5.90;;;;;;;-141.97;35.06;47251.94;5036462;28;20215;-79
2023/09/02 08:09:41;;;;;;;8.88;6.30;;;;;;;-141.97;34.81;47307.66;5038699;28;20179;-79
2023/09/02 08:12:09;;;;;;;8.20;5.80;;;;;;;-141.97;34.80;47317.28;5038942;28;20161;-80
2023/09/02 08:14:34;;;;;;;10.23;6.22;;;;;;;-141.97;34.65;47190.44;5031586;28;20291;-79
2023/09/02 08:16:59;;;;;;;9.20;6.20;;;;;;;-141.97;34.65;47313.44;5030473;28;20644;-79
2023/09/02 08:19:25;;;;;;;8.57;6.47;;;;;;;-141.97;34.70;47275.00;5028699;28;20221;-79
2023/09/02 08:21:50;;;;;;;7.68;6.40;;;;;;;-141.97;34.36;47298.06;5030555;28;20260;-80
2023/09/02 08:24:16;;;;;;;6.20;5.60;;;;;;;-141.97;34.20;47265.38;5030126;28;20171;-80
2023/09/02 08:26:42;;;;;;;9.13;6.07;;;;;;;-141.97;34.49;47273.06;5013962;28;20212;-80
2023/09/02 08:29:08;;;;;;;7.80;5.90;;;;;;;-141.97;34.20;47263.47;5030206;28;20170;-80
2023/09/02 08:31:33;;;;;;;8.38;5.68;;;;;;;-141.97;33.98;47242.31;5029891;28;20278;-80
2023/09/02 08:33:58;;;;;;;8.15;6.20;;;;;;;-141.97;33.70;47499.84;5028711;28;20663;-79
2023/09/02 08:36:24;;;;;;;7.28;6.00;;;;;;;-141.97;33.67;47265.38;5029882;28;20168;-81
2023/09/02 08:38:51;;;;;;;7.00;6.20;;;;;;;-141.97;33.72;47275.00;5028324;28;20166;-80
2023/09/02 08:41:29;;;;;;;7.72;5.93;;;;;;;-141.97;33.57;47263.47;5032570;28;20497;-79
2023/09/02 08:43:55;;;;;;;6.70;6.10;;;;;;;-141.97;33.26;47276.91;5043634;28;20179;-79
2023/09/02 08:46:28;;;;;;;6.85;6.10;;;;;;;-141.97;32.88;47276.91;5026077;28;20237;-81
2023/09/02 08:48:57;;;;;;;7.30;5.93;;;;;;;-141.97;33.06;47478.72;5031210;28;20165;-79
2023/09/02 08:51:24;;;;;;;6.30;5.43;;;;;;;-141.97;33.35;47261.53;5029602;28;20181;-80
2023/09/02 08:53:53;;;;;;;6.88;6.18;;;;;;;-141.97;33.06;47307.66;5029547;28;20181;-80
2023/09/02 08:56:19;;;;;;;10.48;6.05;;;;;;;-141.97;32.97;47286.53;5029931;28;20227;-79
2023/09/02 08:58:45;;;;;;;6.80;5.80;;;;;;;-141.97;32.85;47257.69;5029496;28;20161;-80
2023/09/02 09:01:16;;;;;;;7.80;6.57;;;;;;;-141.97;32.57;47294.22;5029558;28;20602;-80
2023/09/02 09:03:45;;;;;;;8.18;6.22;;;;;;;-141.97;32.56;47261.53;5029855;28;20177;-79
2023/09/02 09:06:12;;;;;;;7.55;6.50;;;;;;;-141.97;32.62;47255.78;5030302;28;20158;-80
2023/09/02 09:08:38;;;;;;;6.82;6.07;;;;;;;-141.97;32.13;47251.94;5030134;28;20227;-80
2023/09/02 09:11:06;;;;;;;6.75;5.80;;;;;;;-141.97;32.10;47298.06;5029144;28;20601;-80
2023/09/02 09:13:34;;;;;;;8.23;6.32;;;;;;;-141.97;32.71;47269.22;5029536;28;20155;-80
2023/09/02 09:16:01;;;;;;;6.88;5.93;;;;;;;-141.97;32.50;47278.84;5029233;28;20197;-81
2023/09/02 09:18:27;;;;;;;8.32;5.88;;;;;;;-141.97;32.18;47255.78;5029373;28;20649;-80
2023/09/02 09:20:53;;;;;;;7.15;6.50;;;;;;;-141.97;32.02;47399.91;5029081;28;20173;-80
2023/09/02 09:23:19;;;;;;;7.07;5.80;;;;;;;-141.97;31.76;47267.31;5029522;28;20719;-79
2023/09/02 09:25:49;;;;;;;9.93;6.57;;;;;;;-141.97;31.99;47226.94;5033128;28;20158;-79
2023/09/02 09:28:14;;;;;;;6.75;6.05;;;;;;;-141.97;32.07;47248.09;5033333;28;20568;-79
2023/09/02 09:30:40;;;;;;;6.57;5.97;;;;;;;-141.97;31.64;47225.03;5033196;28;20170;-80
2023/09/02 09:33:06;;;;;;;9.43;6.13;;;;;;;-141.97;32.10;47263.47;5033252;28;20158;-79
2023/09/02 09:35:32;;;;;;;9.52;5.90;;;;;;;-141.97;31.99;47248.09;5033145;28;20201;-79
2023/09/02 09:37:58;;;;;;;7.53;6.22;;;;;;;-141.97;31.54;47234.63;5032905;28;21053;-81
2023/09/02 09:40:35;;;;;;;6.75;5.68;;;;;;;-141.97;31.58;47386.47;5031381;28;20217;-80
2023/09/02 09:43:12;;;;;;;9.60;6.00;;;;;;;-141.97;32.28;47278.84;5032662;28;20522;-80
2023/09/02 09:45:48;;;;;;;6.40;5.80;;;;;;;-141.97;31.91;47261.53;5023642;28;20315;-79
2023/09/02 09:48:14;;;;;;;6.18;5.57;;;;;;;-141.97;32.16;47294.22;5032869;28;20597;-79
2023/09/02 09:50:39;;;;;;;6.38;5.63;;;;;;;-141.97;31.40;47257.69;5031404;28;20177;-79
2023/09/02 09:53:05;;;;;;;6.88;5.30;;;;;;;-141.97;30.78;47230.78;5032709;28;20511;-79
2023/09/02 09:55:32;;;;;;;7.80;5.85;;;;;;;-141.97;31.28;47269.22;5032789;28;20296;-79
2023/09/02 09:57:58;;;;;;;7.38;6.07;;;;;;;-141.97;32.00;47200.03;5032466;28;20181;-80
2023/09/02 10:00:26;;;;;;;6.07;5.45;;;;;;;-141.97;32.12;47265.38;5032260;28;20193;-79
2023/09/02 10:02:56;;;;;;;5.88;5.28;;;;;;;-141.97;30.67;47228.88;5032796;28;20587;-78
2023/09/02 10:05:29;;;;;;;5.88;5.28;;;;;;;-141.97;30.95;47236.56;5034108;28;20158;-80
2023/09/02 10:08:02;;;;;;;5.97;5.45;;;;;;;-141.97;30.95;47536.38;5032702;28;20169;-79
2023/09/02 10:10:36;;;;;;;9.30;5.20;;;;;;;-141.97;30.86;47242.31;5032581;28;20174;-79
2023/09/02 10:13:02;;;;;;;8.57;5.60;;;;;;;-141.97;30.95;47265.38;5034512;28;20242;-80
2023/09/02 10:15:30;;;;;;;6.47;5.75;;;;;;;-141.97;30.18;47275.00;5045374;28;20197;-81
2023/09/02 10:18:04;;;;;;;6.00;5.25;;;;;;;-141.97;30.32;47176.97;5041616;28;20173;-79
2023/09/02 10:20:32;;;;;;;7.05;5.40;;;;;;;-141.97;30.28;47336.50;5038704;28;20250;-81
2023/09/02 10:23:07;;;;;;;6.03;5.40;;;;;;;-141.97;30.67;47290.38;5035374;28;20183;-79
2023/09/02 10:26:00;;;;;;;6.43;5.82;;;;;;;-141.97;30.77;47242.31;5032548;28;20182;-80
2023/09/02 10:28:48;;;;;;;6.13;5.53;;;;;;;-141.97;30.57;47201.97;5005261;28;20527;-79
2023/09/02 10:31:20;;;;;;;7.32;6.18;;;;;;;-141.97;30.51;47269.22;5009779;28;20182;-80
2023/09/02 10:34:06;;;;;;;8.27;5.88;;;;;;;-141.97;30.08;47230.78;4994711;28;20218;-80
2023/09/02 10:36:33;;;;;;;6.68;5.68;;;;;;;-141.97;30.08;47209.66;4990400;28;20175;-79
2023/09/02 10:39:02;;;;;;;6.30;5.70;;;;;;;-141.97;29.88;47217.34;4989945;28;20706;-79
2023/09/02 10:41:29;;;;;;;6.40;5.78;;;;;;;-141.97;29.98;47219.25;4990035;28;20613;-79
2023/09/02 10:43:55;;;;;;;6.22;5.63;;;;;;;-141.97;30.13;47198.09;4990085;28;20676;-80
2023/09/02 10:46:21;;;;;;;6.05;5.45;;;;;;;-141.97;29.97;47211.56;4980831;28;20269;-80
2023/09/02 10:48:48;;;;;;;7.43;5.50;;;;;;;-141.97;29.53;47196.19;4990056;28;20190;-80
2023/09/02 10:51:15;;;;;;;5.95;5.25;;;;;;;-141.97;29.96;47211.56;4990007;28;20160;-79
2023/09/02 10:53:52;;;;;;;6.63;5.88;;;;;;;-141.97;29.88;47192.34;4972905;28;20188;-81
2023/09/02 10:56:34;;;;;;;7.47;5.53;;;;;;;-141.97;30.30;47515.22;4989719;28;20675;-80
2023/09/02 10:59:02;;;;;;;5.88;5.28;;;;;;;-141.97;29.94;47223.09;4989515;28;20241;-80
2023/09/02 11:01:47;;;;;;;6.07;5.47;;;;;;;-141.97;30.01;47213.50;4989528;28;20168;-80
2023/09/02 11:04:14;;;;;;;7.60;6.13;;;;;;;-141.97;30.00;47175.06;4989532;28;20258;-79
2023/09/02 11:07:17;;;;;;;8.27;6.15;;;;;;;-141.97;30.00;47250.00;5011666;28;20159;-79
2023/09/02 11:09:56;;;;;;;6.28;5.68;;;;;;;-141.97;29.92;47228.88;5011851;28;20162;-80
2023/09/02 11:12:22;;;;;;;6.55;5.88;;;;;;;-141.97;30.36;47255.78;5013470;28;20181;-79